Westchester, IL

9:05 AM CST on February 10, 2016 (GMT -0600)
Sherwood Village - W6NJB | | Change Station
CLOSE
Current Station
Personal Weather Station
Location: La Grange Park, IL
Elevation: 666 ft
Nearby Weather Stations

Elev 666 ft 41.84 °N, 87.88 °W | Updated 13 seconds ago

Partly Cloudy
Partly Cloudy
14.2 °F
Feels Like 1 °F
N
11.4
Wind Variable Wind from North
Gusts 13.4 mph

Today
High -- | Low -- °F
--% Chance of Precip.
Yesterday
High -- | Low -- °F
Precip. -- in
Pressure 30.10 in
Visibility 10.0 miles
Clouds Few 3000 ft
Few 20000 ft
Windchill 1 °F
Dew Point -6 °F
Humidity 39%
Rainfall 0.00 in
Snow Depth Not available.
6:54 AM 5:17 PM
Waxing Crescent, 6% visible
METAR KMDW 101453Z 32010KT 10SM FEW030 FEW200 M11/M18 A3004 RMK AO2 SLP192 T11061178 53013
Pressure 30.10 in
Visibility 10.0 miles
Clouds Few 3000 ft
Few 20000 ft
Windchill 1 °F
Dew Point -6 °F
Humidity 39%
Rainfall 0.00 in
Snow Depth Not available.
6:54 AM 5:17 PM
Waxing Crescent, 6% visible
METAR KMDW 101453Z 32010KT 10SM FEW030 FEW200 M11/M18 A3004 RMK AO2 SLP192 T11061178 53013

10-Day Weather Forecast

Almanac

Astronomy

Feb. 10, 2016 Rise Set
Actual Time
Civil Twilight
Nautical Twilight
Astronomical Twilight
Moon
Length of Visible Light
Length of Day
Tomorrow will be .
, % of the Moon is Illuminated

Today's Extremes

State Highs State Lows

Community

WunderPhotos

Upload Photos

1,891,856 photos uploaded!

WunderBlog® & News

Nearby

Air Quality

  Air Quality AQ Index Pollutant
Not available.

Snow Depth

Station Depth Elevation

Earthquake Activity

City Distance Mag. Time & Date
Minimum magnitude displayed is 2.5.

Coastal Water Temperatures

Place Temperature

Stations

Nearby Weather Stations

Station Location Temp. Windchill Dew Point Humidity Wind Precip. Elev Updated Type
                   

Watches & Warnings

There are currently no watches in effect.